PWSweather.com
Personal Weather Stations
Station Observations
ISTOCKPO4
Cheadle HulmeGB SK8 6NZ

Cheadle HulmeGB SK8 6NZ

Lat: 53.363783, Lon: -2.1948438

Elevation: 261

Station Type: Davis VP2 with Daytime FARS

http://www.cheadlehulmeweather.co.uk

High Low Average
Temperature 51.3°F10.7°C 35.8°F2.1°C 43.5°F6.4°C
Dew Point 43.9°F6.6°C 33.7°F0.9°C 39.9°F4.4°C
Winds 6.0 mph 9.7 kmh Calm Calm 2.0 mph S3.2 kmh S
Wind Gusts 11.0 mph17.7 kmh -- 4.0 mph6.4 kmh
Humidity 95% 67% 88%
Pressure 29.76 in1007.8 mb 29.54 in1000.3 mb -
Precipitation 0.02 in0.5 mm - -
Hour Temp Dew Point Humidity Winds Wind Gusts Pressure Precip Precip Rate Daily Precip Total
12:00 AM 42.1°F5.6°C 40.2°F4.6°C 93% 3.0 mph WNW4.8 kmh WNW 5.0 mph8.0 kmh 29.54 in1000.3 mb 0.00 in0.0 mm 0.00 in0.0 mm 0.00 in0.0 mm
12:15 AM 42.1°F5.6°C 40.2°F4.6°C 93% 3.0 mph WNW4.8 kmh WNW 5.0 mph8.0 kmh 29.55 in1000.7 mb 0.00 in0.0 mm 0.00 in0.0 mm 0.00 in0.0 mm
12:30 AM 42.1°F5.6°C 40.2°F4.6°C 93% 2.0 mph NW3.2 kmh NW 5.0 mph8.0 kmh 29.55 in1000.7 mb 0.00 in0.0 mm 0.00 in0.0 mm 0.00 in0.0 mm
12:45 AM 42.1°F5.6°C 40.2°F4.6°C 93% Calm Calm 1.0 mph1.6 kmh 29.55 in1000.7 mb 0.00 in0.0 mm 0.00 in0.0 mm 0.00 in0.0 mm
01:00 AM 41.7°F5.4°C 39.8°F4.3°C 93% Calm Calm -- 29.56 in1001.0 mb 0.00 in0.0 mm 0.00 in0.0 mm 0.00 in0.0 mm
01:15 AM 41.4°F5.2°C 39.5°F4.2°C 93% Calm Calm -- 29.56 in1001.0 mb 0.00 in0.0 mm 0.00 in0.0 mm 0.00 in0.0 mm
01:30 AM 41.4°F5.2°C 39.5°F4.2°C 93% Calm Calm -- 29.56 in1001.0 mb 0.00 in0.0 mm 0.00 in0.0 mm 0.00 in0.0 mm
01:45 AM 41.4°F5.2°C 39.5°F4.2°C 93% Calm Calm -- 29.56 in1001.0 mb 0.00 in0.0 mm 0.00 in0.0 mm 0.00 in0.0 mm
02:00 AM 41.4°F5.2°C 39.5°F4.2°C 93% Calm Calm -- 29.56 in1001.0 mb 0.00 in0.0 mm 0.00 in0.0 mm 0.00 in0.0 mm
02:15 AM 41.5°F5.3°C 39.7°F4.3°C 93% Calm Calm -- 29.57 in1001.4 mb 0.00 in0.0 mm 0.00 in0.0 mm 0.00 in0.0 mm
02:30 AM 41.5°F5.3°C 39.7°F4.3°C 93% Calm Calm -- 29.57 in1001.4 mb 0.00 in0.0 mm 0.00 in0.0 mm 0.00 in0.0 mm
02:45 AM 41.9°F5.5°C 40.3°F4.6°C 94% 2.0 mph WSW3.2 kmh WSW 4.0 mph6.4 kmh 29.58 in1001.7 mb 0.00 in0.0 mm 0.00 in0.0 mm 0.00 in0.0 mm
03:00 AM 42.1°F5.6°C 40.5°F4.7°C 94% 1.0 mph WSW1.6 kmh WSW 4.0 mph6.4 kmh 29.58 in1001.7 mb 0.00 in0.0 mm 0.00 in0.0 mm 0.00 in0.0 mm
03:15 AM 42.3°F5.7°C 40.7°F4.8°C 94% 3.0 mph W4.8 kmh W 6.0 mph9.7 kmh 29.59 in1002.0 mb 0.00 in0.0 mm 0.00 in0.0 mm 0.00 in0.0 mm
03:30 AM 42.3°F5.7°C 40.7°F4.8°C 94% 4.0 mph W6.4 kmh W 9.0 mph14.5 kmh 29.59 in1002.0 mb 0.00 in0.0 mm 0.00 in0.0 mm 0.00 in0.0 mm
03:45 AM 42.3°F5.7°C 40.7°F4.8°C 94% 5.0 mph WNW8.0 kmh WNW 8.0 mph12.9 kmh 29.59 in1002.0 mb 0.00 in0.0 mm 0.00 in0.0 mm 0.00 in0.0 mm
04:00 AM 42.3°F5.7°C 40.7°F4.8°C 94% 4.0 mph WNW6.4 kmh WNW 8.0 mph12.9 kmh 29.60 in1002.4 mb 0.00 in0.0 mm 0.00 in0.0 mm 0.00 in0.0 mm
04:15 AM 42.3°F5.7°C 40.7°F4.8°C 94% 3.0 mph NW4.8 kmh NW 6.0 mph9.7 kmh 29.60 in1002.4 mb 0.00 in0.0 mm 0.00 in0.0 mm 0.00 in0.0 mm
04:30 AM 42.3°F5.7°C 40.7°F4.8°C 94% 3.0 mph NW4.8 kmh NW 7.0 mph11.3 kmh 29.61 in1002.7 mb 0.00 in0.0 mm 0.00 in0.0 mm 0.00 in0.0 mm
04:45 AM 42.3°F5.7°C 40.7°F4.8°C 94% 2.0 mph NW3.2 kmh NW 5.0 mph8.0 kmh 29.61 in1002.7 mb 0.00 in0.0 mm 0.00 in0.0 mm 0.00 in0.0 mm
05:00 AM 42.3°F5.7°C 40.7°F4.8°C 94% 1.0 mph NNW1.6 kmh NNW 3.0 mph4.8 kmh 29.61 in1002.7 mb 0.00 in0.0 mm 0.00 in0.0 mm 0.00 in0.0 mm
05:15 AM 42.3°F5.7°C 40.7°F4.8°C 94% Calm Calm 2.0 mph3.2 kmh 29.61 in1002.7 mb 0.00 in0.0 mm 0.00 in0.0 mm 0.00 in0.0 mm
05:30 AM 42.1°F5.6°C 40.5°F4.7°C 94% 1.0 mph W1.6 kmh W 3.0 mph4.8 kmh 29.62 in1003.0 mb 0.00 in0.0 mm 0.00 in0.0 mm 0.00 in0.0 mm
05:45 AM 42.1°F5.6°C 40.8°F4.9°C 95% 1.0 mph W1.6 kmh W 3.0 mph4.8 kmh 29.62 in1003.0 mb 0.00 in0.0 mm 0.00 in0.0 mm 0.00 in0.0 mm
06:00 AM 42.1°F5.6°C 40.8°F4.9°C 95% Calm Calm 2.0 mph3.2 kmh 29.63 in1003.4 mb 0.00 in0.0 mm 0.00 in0.0 mm 0.00 in0.0 mm
06:15 AM 42.1°F5.6°C 40.8°F4.9°C 95% Calm Calm 2.0 mph3.2 kmh 29.64 in1003.7 mb 0.00 in0.0 mm 0.00 in0.0 mm 0.00 in0.0 mm
06:30 AM 42.1°F5.6°C 40.8°F4.9°C 95% 2.0 mph W3.2 kmh W 4.0 mph6.4 kmh 29.64 in1003.7 mb 0.00 in0.0 mm 0.00 in0.0 mm 0.00 in0.0 mm
06:45 AM 42.1°F5.6°C 40.8°F4.9°C 95% 2.0 mph W3.2 kmh W 5.0 mph8.0 kmh 29.65 in1004.1 mb 0.00 in0.0 mm 0.00 in0.0 mm 0.00 in0.0 mm
07:00 AM 42.3°F5.7°C 40.9°F4.9°C 95% 2.0 mph W3.2 kmh W 6.0 mph9.7 kmh 29.66 in1004.4 mb 0.00 in0.0 mm 0.00 in0.0 mm 0.00 in0.0 mm
07:15 AM 42.3°F5.7°C 40.9°F4.9°C 95% Calm Calm 1.0 mph1.6 kmh 29.66 in1004.4 mb 0.00 in0.0 mm 0.00 in0.0 mm 0.00 in0.0 mm
07:30 AM 42.3°F5.7°C 40.9°F4.9°C 95% Calm Calm -- 29.66 in1004.4 mb 0.00 in0.0 mm 0.00 in0.0 mm 0.00 in0.0 mm
07:45 AM 42.6°F5.9°C 41.3°F5.2°C 95% 1.0 mph W1.6 kmh W 2.0 mph3.2 kmh 29.67 in1004.7 mb 0.00 in0.0 mm 0.00 in0.0 mm 0.00 in0.0 mm
08:00 AM 42.6°F5.9°C 41.3°F5.2°C 95% 3.0 mph SW4.8 kmh SW 7.0 mph11.3 kmh 29.68 in1005.1 mb 0.00 in0.0 mm 0.00 in0.0 mm 0.00 in0.0 mm
08:15 AM 42.6°F5.9°C 41.3°F5.2°C 95% 1.0 mph SW1.6 kmh SW 6.0 mph9.7 kmh 29.69 in1005.4 mb 0.00 in0.0 mm 0.00 in0.0 mm 0.00 in0.0 mm
08:30 AM 43.0°F6.1°C 41.6°F5.3°C 95% 1.0 mph WSW1.6 kmh WSW 4.0 mph6.4 kmh 29.69 in1005.4 mb 0.00 in0.0 mm 0.00 in0.0 mm 0.00 in0.0 mm
08:45 AM 43.2°F6.2°C 41.8°F5.4°C 95% 1.0 mph SW1.6 kmh SW 4.0 mph6.4 kmh 29.69 in1005.4 mb 0.00 in0.0 mm 0.00 in0.0 mm 0.00 in0.0 mm
09:00 AM 43.2°F6.2°C 41.8°F5.4°C 95% 2.0 mph W3.2 kmh W 5.0 mph8.0 kmh 29.70 in1005.8 mb 0.00 in0.0 mm 0.00 in0.0 mm 0.00 in0.0 mm
09:15 AM 43.3°F6.3°C 42.0°F5.6°C 95% 2.0 mph W3.2 kmh W 5.0 mph8.0 kmh 29.70 in1005.8 mb 0.00 in0.0 mm 0.00 in0.0 mm 0.00 in0.0 mm
09:30 AM 43.5°F6.4°C 42.2°F5.7°C 95% 3.0 mph W4.8 kmh W 5.0 mph8.0 kmh 29.70 in1005.8 mb 0.00 in0.0 mm 0.00 in0.0 mm 0.00 in0.0 mm
09:45 AM 43.5°F6.4°C 42.2°F5.7°C 95% 3.0 mph WNW4.8 kmh WNW 5.0 mph8.0 kmh 29.71 in1006.1 mb 0.00 in0.0 mm 0.00 in0.0 mm 0.00 in0.0 mm
10:00 AM 43.9°F6.6°C 42.5°F5.8°C 95% 3.0 mph WNW4.8 kmh WNW 7.0 mph11.3 kmh 29.71 in1006.1 mb 0.00 in0.0 mm 0.00 in0.0 mm 0.00 in0.0 mm
10:15 AM 44.2°F6.8°C 42.9°F6.1°C 95% 3.0 mph W4.8 kmh W 8.0 mph12.9 kmh 29.72 in1006.4 mb 0.01 in0.3 mm 0.04 in1.0 mm 0.01 in0.3 mm
10:30 AM 44.8°F7.1°C 43.4°F6.3°C 95% 3.0 mph W4.8 kmh W 8.0 mph12.9 kmh 29.72 in1006.4 mb 0.01 in0.3 mm 0.00 in0.0 mm 0.01 in0.3 mm
10:45 AM 45.0°F7.2°C 43.6°F6.4°C 95% 5.0 mph W8.0 kmh W 10.0 mph16.1 kmh 29.73 in1006.8 mb 0.01 in0.3 mm 0.00 in0.0 mm 0.01 in0.3 mm
11:00 AM 45.1°F7.3°C 43.5°F6.4°C 94% 4.0 mph WNW6.4 kmh WNW 8.0 mph12.9 kmh 29.73 in1006.8 mb 0.01 in0.3 mm 0.00 in0.0 mm 0.01 in0.3 mm
11:15 AM 45.3°F7.4°C 43.7°F6.5°C 94% 6.0 mph W9.7 kmh W 10.0 mph16.1 kmh 29.73 in1006.8 mb 0.00 in0.0 mm 0.00 in0.0 mm 0.01 in0.3 mm
11:30 AM 45.5°F7.5°C 43.6°F6.4°C 93% 6.0 mph W9.7 kmh W 10.0 mph16.1 kmh 29.74 in1007.1 mb 0.00 in0.0 mm 0.00 in0.0 mm 0.01 in0.3 mm
11:45 AM 45.9°F7.7°C 43.4°F6.3°C 91% 6.0 mph WNW9.7 kmh WNW 11.0 mph17.7 kmh 29.74 in1007.1 mb 0.00 in0.0 mm 0.00 in0.0 mm 0.01 in0.3 mm
12:00 PM 46.9°F8.3°C 43.9°F6.6°C 89% 3.0 mph WNW4.8 kmh WNW 5.0 mph8.0 kmh 29.74 in1007.1 mb 0.00 in0.0 mm 0.00 in0.0 mm 0.01 in0.3 mm
12:15 PM 46.8°F8.2°C 43.4°F6.3°C 88% 4.0 mph WNW6.4 kmh WNW 8.0 mph12.9 kmh 29.74 in1007.1 mb 0.00 in0.0 mm 0.00 in0.0 mm 0.01 in0.3 mm
12:30 PM 46.0°F7.8°C 42.1°F5.6°C 86% 5.0 mph W8.0 kmh W 10.0 mph16.1 kmh 29.75 in1007.5 mb 0.00 in0.0 mm 0.00 in0.0 mm 0.01 in0.3 mm
12:45 PM 46.0°F7.8°C 41.8°F5.4°C 85% 4.0 mph W6.4 kmh W 8.0 mph12.9 kmh 29.75 in1007.5 mb 0.01 in0.3 mm 0.04 in1.0 mm 0.02 in0.5 mm
01:00 PM 46.6°F8.1°C 42.6°F5.9°C 86% 4.0 mph W6.4 kmh W 9.0 mph14.5 kmh 29.75 in1007.5 mb 0.01 in0.3 mm 0.00 in0.0 mm 0.02 in0.5 mm
01:15 PM 47.1°F8.4°C 42.5°F5.8°C 84% 4.0 mph W6.4 kmh W 8.0 mph12.9 kmh 29.75 in1007.5 mb 0.01 in0.3 mm 0.00 in0.0 mm 0.02 in0.5 mm
01:30 PM 48.7°F9.3°C 42.8°F6.0°C 80% 4.0 mph W6.4 kmh W 8.0 mph12.9 kmh 29.74 in1007.1 mb 0.01 in0.3 mm 0.00 in0.0 mm 0.02 in0.5 mm
01:45 PM 49.8°F9.9°C 42.6°F5.9°C 76% 4.0 mph W6.4 kmh W 10.0 mph16.1 kmh 29.75 in1007.5 mb 0.00 in0.0 mm 0.00 in0.0 mm 0.02 in0.5 mm
02:00 PM 50.4°F10.2°C 43.4°F6.3°C 77% 4.0 mph WNW6.4 kmh WNW 8.0 mph12.9 kmh 29.74 in1007.1 mb 0.00 in0.0 mm 0.00 in0.0 mm 0.02 in0.5 mm
02:15 PM 49.6°F9.8°C 42.4°F5.8°C 76% 2.0 mph W3.2 kmh W 5.0 mph8.0 kmh 29.74 in1007.1 mb 0.00 in0.0 mm 0.00 in0.0 mm 0.02 in0.5 mm
02:30 PM 51.3°F10.7°C 42.2°F5.7°C 71% 2.0 mph NW3.2 kmh NW 4.0 mph6.4 kmh 29.74 in1007.1 mb 0.00 in0.0 mm 0.00 in0.0 mm 0.02 in0.5 mm
02:45 PM 50.5°F10.3°C 41.8°F5.4°C 72% 3.0 mph W4.8 kmh W 5.0 mph8.0 kmh 29.74 in1007.1 mb 0.00 in0.0 mm 0.00 in0.0 mm 0.02 in0.5 mm
03:00 PM 49.8°F9.9°C 40.1°F4.5°C 69% 3.0 mph WSW4.8 kmh WSW 8.0 mph12.9 kmh 29.75 in1007.5 mb 0.00 in0.0 mm 0.00 in0.0 mm 0.02 in0.5 mm
03:15 PM 49.5°F9.7°C 39.7°F4.3°C 69% 3.0 mph W4.8 kmh W 7.0 mph11.3 kmh 29.75 in1007.5 mb 0.00 in0.0 mm 0.00 in0.0 mm 0.02 in0.5 mm
03:30 PM 49.8°F9.9°C 40.4°F4.7°C 70% 3.0 mph W4.8 kmh W 8.0 mph12.9 kmh 29.74 in1007.1 mb 0.00 in0.0 mm 0.00 in0.0 mm 0.02 in0.5 mm
03:45 PM 50.7°F10.4°C 40.2°F4.6°C 67% 4.0 mph WNW6.4 kmh WNW 9.0 mph14.5 kmh 29.74 in1007.1 mb 0.00 in0.0 mm 0.00 in0.0 mm 0.02 in0.5 mm
04:00 PM 49.6°F9.8°C 40.3°F4.6°C 70% 3.0 mph W4.8 kmh W 7.0 mph11.3 kmh 29.74 in1007.1 mb 0.00 in0.0 mm 0.00 in0.0 mm 0.02 in0.5 mm
04:15 PM 50.2°F10.1°C 40.0°F4.4°C 68% 2.0 mph SW3.2 kmh SW 6.0 mph9.7 kmh 29.74 in1007.1 mb 0.00 in0.0 mm 0.00 in0.0 mm 0.02 in0.5 mm
04:30 PM 50.0°F10.0°C 40.2°F4.6°C 69% 2.0 mph WNW3.2 kmh WNW 6.0 mph9.7 kmh 29.74 in1007.1 mb 0.00 in0.0 mm 0.00 in0.0 mm 0.02 in0.5 mm
04:45 PM 49.5°F9.7°C 40.1°F4.5°C 70% 2.0 mph W3.2 kmh W 6.0 mph9.7 kmh 29.75 in1007.5 mb 0.00 in0.0 mm 0.00 in0.0 mm 0.02 in0.5 mm
05:00 PM 48.7°F9.3°C 39.4°F4.1°C 70% 3.0 mph WNW4.8 kmh WNW 5.0 mph8.0 kmh 29.75 in1007.5 mb 0.00 in0.0 mm 0.00 in0.0 mm 0.02 in0.5 mm
05:15 PM 48.6°F9.2°C 39.2°F4.0°C 70% 2.0 mph WSW3.2 kmh WSW 5.0 mph8.0 kmh 29.75 in1007.5 mb 0.00 in0.0 mm 0.00 in0.0 mm 0.02 in0.5 mm
05:30 PM 48.4°F9.1°C 39.8°F4.3°C 72% 1.0 mph W1.6 kmh W 3.0 mph4.8 kmh 29.76 in1007.8 mb 0.00 in0.0 mm 0.00 in0.0 mm 0.02 in0.5 mm
05:45 PM 47.8°F8.8°C 39.6°F4.2°C 73% Calm Calm 2.0 mph3.2 kmh 29.76 in1007.8 mb 0.00 in0.0 mm 0.00 in0.0 mm 0.02 in0.5 mm
06:00 PM 47.5°F8.6°C 39.3°F4.1°C 73% 1.0 mph WSW1.6 kmh WSW 3.0 mph4.8 kmh 29.76 in1007.8 mb 0.00 in0.0 mm 0.00 in0.0 mm 0.02 in0.5 mm
06:15 PM 46.8°F8.2°C 39.3°F4.1°C 75% Calm Calm -- 29.76 in1007.8 mb 0.00 in0.0 mm 0.00 in0.0 mm 0.02 in0.5 mm
06:30 PM 45.7°F7.6°C 38.5°F3.6°C 76% Calm Calm -- 29.76 in1007.8 mb 0.00 in0.0 mm 0.00 in0.0 mm 0.02 in0.5 mm
06:45 PM 44.4°F6.9°C 38.0°F3.3°C 78% Calm Calm 2.0 mph3.2 kmh 29.76 in1007.8 mb 0.00 in0.0 mm 0.00 in0.0 mm 0.02 in0.5 mm
07:00 PM 43.3°F6.3°C 37.3°F2.9°C 79% 1.0 mph WSW1.6 kmh WSW 3.0 mph4.8 kmh 29.76 in1007.8 mb 0.00 in0.0 mm 0.00 in0.0 mm 0.02 in0.5 mm
07:15 PM 42.3°F5.7°C 36.8°F2.7°C 81% Calm Calm -- 29.76 in1007.8 mb 0.00 in0.0 mm 0.00 in0.0 mm 0.02 in0.5 mm
07:30 PM 41.4°F5.2°C 36.9°F2.7°C 84% Calm Calm 1.0 mph1.6 kmh 29.76 in1007.8 mb 0.00 in0.0 mm 0.00 in0.0 mm 0.02 in0.5 mm
07:45 PM 41.2°F5.1°C 37.3°F2.9°C 86% Calm Calm -- 29.76 in1007.8 mb 0.00 in0.0 mm 0.00 in0.0 mm 0.02 in0.5 mm
08:00 PM 40.8°F4.9°C 37.3°F2.9°C 87% Calm Calm -- 29.75 in1007.5 mb 0.00 in0.0 mm 0.00 in0.0 mm 0.02 in0.5 mm
08:15 PM 40.1°F4.5°C 36.5°F2.5°C 87% Calm Calm -- 29.75 in1007.5 mb 0.00 in0.0 mm 0.00 in0.0 mm 0.02 in0.5 mm
08:30 PM 39.4°F4.1°C 36.1°F2.3°C 88% Calm Calm 2.0 mph3.2 kmh 29.75 in1007.5 mb 0.00 in0.0 mm 0.00 in0.0 mm 0.02 in0.5 mm
08:45 PM 38.7°F3.7°C 35.4°F1.9°C 88% Calm Calm -- 29.75 in1007.5 mb 0.00 in0.0 mm 0.00 in0.0 mm 0.02 in0.5 mm
09:00 PM 37.8°F3.2°C 34.8°F1.6°C 89% Calm Calm -- 29.75 in1007.5 mb 0.00 in0.0 mm 0.00 in0.0 mm 0.02 in0.5 mm
09:15 PM 37.2°F2.9°C 34.3°F1.3°C 89% 1.0 mph SE1.6 kmh SE 3.0 mph4.8 kmh 29.75 in1007.5 mb 0.00 in0.0 mm 0.00 in0.0 mm 0.02 in0.5 mm
09:30 PM 37.6°F3.1°C 35.2°F1.8°C 91% 2.0 mph ESE3.2 kmh ESE 4.0 mph6.4 kmh 29.75 in1007.5 mb 0.00 in0.0 mm 0.00 in0.0 mm 0.02 in0.5 mm
09:45 PM 37.2°F2.9°C 34.8°F1.6°C 91% Calm Calm 2.0 mph3.2 kmh 29.75 in1007.5 mb 0.00 in0.0 mm 0.00 in0.0 mm 0.02 in0.5 mm
10:00 PM 37.0°F2.8°C 34.7°F1.5°C 91% 1.0 mph SE1.6 kmh SE 3.0 mph4.8 kmh 29.75 in1007.5 mb 0.00 in0.0 mm 0.00 in0.0 mm 0.02 in0.5 mm
10:15 PM 37.0°F2.8°C 34.9°F1.6°C 92% 2.0 mph SE3.2 kmh SE 4.0 mph6.4 kmh 29.75 in1007.5 mb 0.00 in0.0 mm 0.00 in0.0 mm 0.02 in0.5 mm
10:30 PM 37.0°F2.8°C 34.9°F1.6°C 92% 2.0 mph SE3.2 kmh SE 3.0 mph4.8 kmh 29.75 in1007.5 mb 0.00 in0.0 mm 0.00 in0.0 mm 0.02 in0.5 mm
10:45 PM 36.9°F2.7°C 34.8°F1.6°C 92% 2.0 mph SE3.2 kmh SE 4.0 mph6.4 kmh 29.75 in1007.5 mb 0.00 in0.0 mm 0.00 in0.0 mm 0.02 in0.5 mm
11:00 PM 36.7°F2.6°C 34.6°F1.4°C 92% 2.0 mph SE3.2 kmh SE 3.0 mph4.8 kmh 29.74 in1007.1 mb 0.00 in0.0 mm 0.00 in0.0 mm 0.02 in0.5 mm
11:15 PM 36.3°F2.4°C 34.2°F1.2°C 92% 2.0 mph SE3.2 kmh SE 3.0 mph4.8 kmh 29.74 in1007.1 mb 0.00 in0.0 mm 0.00 in0.0 mm 0.02 in0.5 mm
11:30 PM 36.1°F2.3°C 34.0°F1.1°C 92% 2.0 mph SE3.2 kmh SE 3.0 mph4.8 kmh 29.74 in1007.1 mb 0.00 in0.0 mm 0.00 in0.0 mm 0.02 in0.5 mm
11:45 PM 35.8°F2.1°C 33.7°F0.9°C 92% 2.0 mph SE3.2 kmh SE 3.0 mph4.8 kmh 29.73 in1006.8 mb 0.00 in0.0 mm 0.00 in0.0 mm 0.02 in0.5 mm